createdAt,value
2024-02-04T00:00:03.150Z,101777.78
2024-02-04T00:02:29.956Z,101772.50
2024-02-04T00:04:56.800Z,101773.88
2024-02-04T00:07:23.872Z,101774.72
2024-02-04T00:09:50.790Z,101779.59
2024-02-04T00:12:17.632Z,101773.66
2024-02-04T00:14:44.438Z,101769.50
2024-02-04T00:17:11.238Z,101772.28
2024-02-04T00:19:38.142Z,101759.03
2024-02-04T00:22:05.188Z,101773.00
2024-02-04T00:24:32.120Z,101761.34
2024-02-04T00:26:58.946Z,101762.03
2024-02-04T00:29:25.869Z,101752.91
2024-02-04T00:31:52.649Z,101740.88
2024-02-04T00:34:19.551Z,101738.94
2024-02-04T00:36:46.398Z,101745.84
2024-02-04T00:39:13.161Z,101753.31
2024-02-04T00:41:39.938Z,101746.38
2024-02-04T00:44:06.743Z,101741.25
2024-02-04T00:46:33.553Z,101744.06
2024-02-04T00:49:00.513Z,101745.59
2024-02-04T00:51:27.494Z,101755.31
2024-02-04T00:53:54.336Z,101756.13
2024-02-04T00:56:21.146Z,101749.50
2024-02-04T00:58:47.911Z,101749.94
2024-02-04T01:01:14.849Z,101758.09
2024-02-04T01:03:41.753Z,101765.31
2024-02-04T01:06:08.514Z,101760.72
2024-02-04T01:08:35.297Z,101770.16
2024-02-04T01:11:02.124Z,101758.94
2024-02-04T01:13:29.621Z,101765.59
2024-02-04T01:15:56.484Z,101763.41
2024-02-04T01:18:23.328Z,101762.31
2024-02-04T01:20:50.237Z,101760.34
2024-02-04T01:23:17.023Z,101769.91
2024-02-04T01:25:44.219Z,101763.69
2024-02-04T01:28:11.469Z,101748.88
2024-02-04T01:30:38.362Z,101750.97
2024-02-04T01:33:05.465Z,101748.16
2024-02-04T01:35:32.281Z,101747.38
2024-02-04T01:37:59.103Z,101762.19
2024-02-04T01:40:25.938Z,101762.44
2024-02-04T01:42:52.768Z,101768.13
2024-02-04T01:45:19.577Z,101771.59
2024-02-04T01:47:46.533Z,101774.34
2024-02-04T01:50:13.398Z,101783.75
2024-02-04T01:52:42.108Z,101786.63
2024-02-04T01:55:09.752Z,101786.97
2024-02-04T01:57:36.710Z,101788.47
2024-02-04T02:00:04.524Z,101786.59
2024-02-04T02:02:33.726Z,101786.34
2024-02-04T02:05:00.864Z,101774.06
2024-02-04T02:07:27.786Z,101758.16
2024-02-04T02:09:55.854Z,101750.97
2024-02-04T02:12:28.367Z,101746.25
2024-02-04T02:15:27.104Z,101753.19
2024-02-04T02:18:03.559Z,101752.22
2024-02-04T02:21:09.234Z,101768.53
2024-02-04T02:23:39.881Z,101765.91
2024-02-04T02:26:07.931Z,101768.13
2024-02-04T02:28:34.712Z,101777.81
2024-02-04T02:31:04.510Z,101783.59
2024-02-04T02:33:33.310Z,101786.09
2024-02-04T02:36:03.567Z,101788.72
2024-02-04T02:38:38.583Z,101790.97
2024-02-04T02:41:09.742Z,101782.94
2024-02-04T02:43:40.837Z,101774.09
2024-02-04T02:46:08.898Z,101767.84
2024-02-04T02:48:36.860Z,101766.88
2024-02-04T02:51:03.809Z,101761.75
2024-02-04T02:53:30.618Z,101748.47
2024-02-04T02:55:57.435Z,101748.75
2024-02-04T02:58:24.216Z,101745.44
2024-02-04T03:00:51.038Z,101740.31
2024-02-04T03:03:17.862Z,101744.88
2024-02-04T03:05:44.651Z,101751.53
2024-02-04T03:08:11.439Z,101752.63
2024-02-04T03:10:38.183Z,101750.16
2024-02-04T03:13:05.131Z,101751.25
2024-02-04T03:15:32.005Z,101744.47
2024-02-04T03:17:58.904Z,101750.69
2024-02-04T03:20:25.721Z,101755.81
2024-02-04T03:22:52.596Z,101750.97
2024-02-04T03:25:19.431Z,101739.34
2024-02-04T03:27:46.271Z,101726.06
2024-02-04T03:30:13.219Z,101722.47
2024-02-04T03:32:40.059Z,101732.44
2024-02-04T03:35:07.083Z,101726.22
2024-02-04T03:37:33.907Z,101727.75
2024-02-04T03:40:00.909Z,101735.63
2024-02-04T03:42:27.897Z,101748.19
2024-02-04T03:44:55.441Z,101741.97
2024-02-04T03:47:22.188Z,101745.88
2024-02-04T03:49:49.049Z,101736.31
2024-02-04T03:52:15.862Z,101738.78
2024-02-04T03:54:42.706Z,101740.44
2024-02-04T03:57:09.469Z,101745.88
2024-02-04T03:59:36.208Z,101748.75
2024-02-04T04:02:03.014Z,101754.00
2024-02-04T04:04:30.080Z,101744.59
2024-02-04T04:06:57.060Z,101741.56
2024-02-04T04:09:23.967Z,101738.50
2024-02-04T04:11:50.875Z,101736.00
2024-02-04T04:14:17.684Z,101739.91
2024-02-04T04:16:44.506Z,101726.06
2024-02-04T04:19:11.499Z,101715.13
2024-02-04T04:21:39.288Z,101700.88
2024-02-04T04:24:06.447Z,101690.25
2024-02-04T04:26:33.253Z,101685.94
2024-02-04T04:29:00.073Z,101683.31
2024-02-04T04:31:26.918Z,101681.38
2024-02-04T04:33:54.009Z,101677.22
2024-02-04T04:36:20.933Z,101672.25
2024-02-04T04:38:47.794Z,101671.00
2024-02-04T04:41:14.622Z,101668.66
2024-02-04T04:43:41.417Z,101668.50
2024-02-04T04:46:08.259Z,101662.16
2024-02-04T04:48:35.274Z,101648.31
2024-02-04T04:51:02.117Z,101640.03
2024-02-04T04:53:28.943Z,101632.84
2024-02-04T04:55:55.786Z,101639.06
2024-02-04T04:58:22.569Z,101637.56
2024-02-04T05:00:49.471Z,101643.09
2024-02-04T05:03:16.343Z,101652.78
2024-02-04T05:05:43.110Z,101657.47
2024-02-04T05:08:09.963Z,101666.19
2024-02-04T05:10:36.791Z,101670.59
2024-02-04T05:13:03.710Z,101678.63
2024-02-04T05:15:30.567Z,101690.53
2024-02-04T05:17:57.411Z,101689.56
2024-02-04T05:20:24.223Z,101700.47
2024-02-04T05:22:51.025Z,101693.97
2024-02-04T05:25:17.842Z,101689.81
2024-02-04T05:27:44.764Z,101693.16
2024-02-04T05:30:12.216Z,101723.00
2024-02-04T05:32:39.068Z,101742.59
2024-02-04T05:35:06.134Z,101731.69
2024-02-04T05:37:32.893Z,101718.56
2024-02-04T05:39:59.729Z,101730.75
2024-02-04T05:42:26.607Z,101734.94
2024-02-04T05:44:53.421Z,101732.97
2024-02-04T05:47:20.234Z,101746.94
2024-02-04T05:49:47.238Z,101762.69
2024-02-04T05:52:14.285Z,101770.31
2024-02-04T05:54:41.216Z,101768.41
2024-02-04T05:57:08.439Z,101763.56
2024-02-04T05:59:35.636Z,101771.41
2024-02-04T06:02:02.476Z,101777.63
2024-02-04T06:04:31.186Z,101782.22
2024-02-04T06:06:58.089Z,101781.66
2024-02-04T06:09:24.978Z,101771.97
2024-02-04T06:11:51.816Z,101789.66
2024-02-04T06:14:18.592Z,101800.44
2024-02-04T06:16:45.342Z,101797.25
2024-02-04T06:19:14.994Z,101822.31
2024-02-04T06:21:41.924Z,101828.63
2024-02-04T06:24:08.773Z,101813.59
2024-02-04T06:26:38.974Z,101813.41
2024-02-04T06:29:05.810Z,101822.13
2024-02-04T06:31:32.587Z,101824.75
2024-02-04T06:33:59.575Z,101838.06
2024-02-04T06:36:26.489Z,101848.69
2024-02-04T06:38:53.350Z,101864.59
2024-02-04T06:41:20.164Z,101879.25
2024-02-04T06:43:46.976Z,101884.81
2024-02-04T06:46:13.893Z,101879.97
2024-02-04T06:48:40.733Z,101896.03
2024-02-04T06:51:07.529Z,101902.63
2024-02-04T06:53:34.766Z,101900.91
2024-02-04T06:56:01.560Z,101902.44
2024-02-04T06:58:28.364Z,101902.88
2024-02-04T07:00:55.189Z,101900.56
2024-02-04T07:03:22.193Z,101910.22
2024-02-04T07:05:49.074Z,101908.00
2024-02-04T07:08:15.876Z,101911.34
2024-02-04T07:10:42.717Z,101929.25
2024-02-04T07:13:09.802Z,101938.78
2024-02-04T07:15:36.697Z,101948.91
2024-02-04T07:18:03.691Z,101951.84
2024-02-04T07:20:30.554Z,101958.59
2024-02-04T07:22:57.397Z,101963.31
2024-02-04T07:25:24.135Z,101955.50
2024-02-04T07:27:50.964Z,101959.16
2024-02-04T07:30:18.347Z,101939.69
2024-02-04T07:32:45.228Z,101926.31
2024-02-04T07:35:12.200Z,101929.19
2024-02-04T07:37:39.046Z,101936.84
2024-02-04T07:40:06.651Z,101933.84
2024-02-04T07:42:33.707Z,101942.47
2024-02-04T07:45:00.489Z,101954.03
2024-02-04T07:47:27.283Z,101957.13
2024-02-04T07:49:54.263Z,101948.41
2024-02-04T07:52:21.112Z,101958.94
2024-02-04T07:54:48.069Z,101950.19
2024-02-04T07:57:14.854Z,101953.81
2024-02-04T07:59:41.640Z,101950.78
2024-02-04T08:02:08.491Z,101956.47
2024-02-04T08:04:35.547Z,101964.53
2024-02-04T08:07:03.278Z,101961.22
2024-02-04T08:09:30.173Z,101966.94
2024-02-04T08:11:59.847Z,101958.50
2024-02-04T08:14:26.953Z,101951.06
2024-02-04T08:16:53.789Z,101953.28
2024-02-04T08:19:20.756Z,101951.91
2024-02-04T08:21:47.664Z,101947.91
2024-02-04T08:24:14.462Z,101946.69
2024-02-04T08:26:41.377Z,101946.13
2024-02-04T08:29:08.162Z,101940.59
2024-02-04T08:31:35.018Z,101945.03
2024-02-04T08:34:01.961Z,101945.59
2024-02-04T08:36:28.816Z,101938.81
2024-02-04T08:38:55.663Z,101930.78
2024-02-04T08:41:22.423Z,101924.81
2024-02-04T08:43:49.248Z,101922.34
2024-02-04T08:46:16.158Z,101915.13
2024-02-04T08:48:43.304Z,101903.47
2024-02-04T08:51:13.472Z,101909.84
2024-02-04T08:53:40.719Z,101909.00
2024-02-04T08:56:08.025Z,101899.56
2024-02-04T08:58:34.909Z,101889.47
2024-02-04T09:01:01.744Z,101891.91
2024-02-04T09:03:28.662Z,101881.78
2024-02-04T09:05:55.487Z,101882.56
2024-02-04T09:08:22.335Z,101884.38
2024-02-04T09:10:49.184Z,101880.72
2024-02-04T09:13:19.095Z,101887.06
2024-02-04T09:15:45.973Z,101895.81
2024-02-04T09:18:12.851Z,101901.47
2024-02-04T09:20:39.837Z,101900.06
2024-02-04T09:23:06.666Z,101901.66
2024-02-04T09:25:33.602Z,101896.25
2024-02-04T09:28:00.604Z,101888.56
2024-02-04T09:30:27.616Z,101885.94
2024-02-04T09:32:54.674Z,101888.94
2024-02-04T09:35:21.785Z,101902.06
2024-02-04T09:37:48.827Z,101909.09
2024-02-04T09:40:16.074Z,101905.47
2024-02-04T09:42:43.076Z,101908.22
2024-02-04T09:45:11.014Z,101900.97
2024-02-04T09:47:40.044Z,101907.50
2024-02-04T09:50:07.419Z,101916.94
2024-02-04T09:52:37.610Z,101918.75
2024-02-04T09:55:06.102Z,101923.22
2024-02-04T09:57:35.913Z,101921.78
2024-02-04T10:00:06.438Z,101919.63
2024-02-04T10:02:34.086Z,101926.03
2024-02-04T10:05:01.453Z,101925.81
2024-02-04T10:07:28.598Z,101911.88
2024-02-04T10:09:56.315Z,101915.03
2024-02-04T10:12:23.330Z,101906.28
2024-02-04T10:14:53.255Z,101913.28
2024-02-04T10:17:20.982Z,101904.25
2024-02-04T10:19:50.766Z,101901.66
2024-02-04T10:22:17.824Z,101903.63
2024-02-04T10:24:44.905Z,101903.00
2024-02-04T10:27:16.292Z,101894.31
2024-02-04T10:29:49.643Z,101905.84
2024-02-04T10:32:21.788Z,101907.44
2024-02-04T10:34:51.286Z,101906.16
2024-02-04T10:37:18.320Z,101900.56
2024-02-04T10:39:45.234Z,101888.03
2024-02-04T10:42:14.423Z,101893.53
2024-02-04T10:44:46.529Z,101887.72
2024-02-04T10:47:18.032Z,101887.47
2024-02-04T10:49:52.277Z,101887.25
2024-02-04T10:52:19.655Z,101887.09
2024-02-04T10:54:47.682Z,101888.59
2024-02-04T10:57:20.110Z,101883.44
2024-02-04T10:59:49.455Z,101883.53
2024-02-04T11:02:21.044Z,101881.56
2024-02-04T11:04:50.709Z,101875.31
2024-02-04T11:07:19.289Z,101866.59
2024-02-04T11:09:47.763Z,101843.63
2024-02-04T11:12:17.749Z,101846.94
2024-02-04T11:14:51.763Z,101827.56
2024-02-04T11:17:27.812Z,101838.06
2024-02-04T11:20:27.240Z,101827.81
2024-02-04T11:22:54.018Z,101819.06
2024-02-04T11:25:39.640Z,101817.13
2024-02-04T11:28:07.244Z,101810.84
2024-02-04T11:30:35.384Z,101802.41
2024-02-04T11:33:02.668Z,101803.09
2024-02-04T11:35:29.744Z,101800.75
2024-02-04T11:37:59.942Z,101795.63
2024-02-04T11:40:32.478Z,101797.44
2024-02-04T11:43:11.604Z,101795.81
2024-02-04T11:45:40.280Z,101795.81
2024-02-04T11:48:12.014Z,101788.72
2024-02-04T11:50:40.583Z,101777.97
2024-02-04T11:53:12.899Z,101779.13
2024-02-04T11:55:45.442Z,101771.53
2024-02-04T11:58:13.972Z,101768.88
2024-02-04T12:00:44.520Z,101764.25
2024-02-04T12:03:11.413Z,101756.47
2024-02-04T12:05:39.213Z,101749.69
2024-02-04T12:08:08.136Z,101745.53
2024-02-04T12:10:37.092Z,101756.13
2024-02-04T12:13:05.431Z,101748.22
2024-02-04T12:15:33.462Z,101746.22
2024-02-04T12:18:13.565Z,101742.22
2024-02-04T12:20:40.568Z,101731.97
2024-02-04T12:23:08.424Z,101731.94
2024-02-04T12:25:36.726Z,101730.53
2024-02-04T12:28:04.492Z,101730.88
2024-02-04T12:30:32.532Z,101727.72
2024-02-04T12:33:00.988Z,101730.03
2024-02-04T12:35:28.776Z,101740.31
2024-02-04T12:37:57.109Z,101731.16
2024-02-04T12:40:28.136Z,101737.47
2024-02-04T12:43:05.706Z,101725.16
2024-02-04T12:45:34.207Z,101732.22
2024-02-04T12:48:01.237Z,101731.56
2024-02-04T12:50:28.172Z,101726.97
2024-02-04T12:53:06.894Z,101724.75
2024-02-04T12:55:35.292Z,101725.75
2024-02-04T12:58:13.876Z,101721.59
2024-02-04T13:00:40.973Z,101719.56
2024-02-04T13:03:09.079Z,101720.56
2024-02-04T13:05:36.836Z,101713.31
2024-02-04T13:08:05.542Z,101721.25
2024-02-04T13:10:34.030Z,101718.25
2024-02-04T13:13:07.984Z,101726.09
2024-02-04T13:15:40.859Z,101720.94
2024-02-04T13:18:09.584Z,101712.94
2024-02-04T13:20:36.784Z,101711.44
2024-02-04T13:23:03.618Z,101709.16
2024-02-04T13:25:30.435Z,101708.00
2024-02-04T13:27:57.577Z,101702.75
2024-02-04T13:30:24.408Z,101705.22
2024-02-04T13:32:51.954Z,101712.31
2024-02-04T13:35:20.515Z,101727.28
2024-02-04T13:37:49.466Z,101722.03
2024-02-04T13:40:17.157Z,101721.03
2024-02-04T13:42:44.596Z,101716.31
2024-02-04T13:45:12.485Z,101717.22
2024-02-04T13:47:39.317Z,101717.72
2024-02-04T13:50:07.082Z,101708.66
2024-02-04T13:52:33.993Z,101709.34
2024-02-04T13:55:00.883Z,101714.19
2024-02-04T13:57:27.773Z,101704.56
2024-02-04T13:59:55.215Z,101713.41
2024-02-04T14:02:22.051Z,101718.31
2024-02-04T14:04:48.896Z,101716.94
2024-02-04T14:07:15.818Z,101718.78
2024-02-04T14:09:42.669Z,101716.84
2024-02-04T14:12:09.508Z,101719.06
2024-02-04T14:14:36.249Z,101715.78
2024-02-04T14:17:02.974Z,101715.13
2024-02-04T14:19:29.798Z,101710.16
2024-02-04T14:21:56.633Z,101709.47
2024-02-04T14:24:23.491Z,101714.06
2024-02-04T14:26:56.967Z,101711.53
2024-02-04T14:29:23.740Z,101705.34
2024-02-04T14:31:50.624Z,101711.03
2024-02-04T14:34:17.470Z,101711.47
2024-02-04T14:36:44.448Z,101707.72
2024-02-04T14:39:11.281Z,101714.28
2024-02-04T14:41:38.600Z,101722.66
2024-02-04T14:44:05.584Z,101713.38
2024-02-04T14:46:32.403Z,101725.31
2024-02-04T14:48:59.325Z,101722.38
2024-02-04T14:51:26.124Z,101721.66
2024-02-04T14:53:52.928Z,101717.19
2024-02-04T14:56:19.719Z,101723.50
2024-02-04T14:58:46.523Z,101723.56
2024-02-04T15:01:13.369Z,101718.16
2024-02-04T15:03:40.188Z,101730.84
2024-02-04T15:06:07.146Z,101723.06
2024-02-04T15:08:34.054Z,101722.19
2024-02-04T15:11:00.831Z,101726.34
2024-02-04T15:13:33.908Z,101718.44
2024-02-04T15:16:01.522Z,101717.66
2024-02-04T15:18:28.475Z,101706.41
2024-02-04T15:20:55.504Z,101695.19
2024-02-04T15:23:22.634Z,101698.84
2024-02-04T15:25:49.504Z,101697.72
2024-02-04T15:28:16.820Z,101688.13
2024-02-04T15:30:43.877Z,101691.78
2024-02-04T15:33:10.870Z,101700.56
2024-02-04T15:35:37.893Z,101695.66
2024-02-04T15:38:04.814Z,101686.69
2024-02-04T15:40:31.546Z,101682.25
2024-02-04T15:42:58.408Z,101686.91
2024-02-04T15:45:25.243Z,101687.75
2024-02-04T15:47:52.776Z,101685.25
2024-02-04T15:50:20.081Z,101697.28
2024-02-04T15:52:50.863Z,101678.06
2024-02-04T15:55:18.828Z,101678.88
2024-02-04T15:57:50.723Z,101669.97
2024-02-04T16:00:21.873Z,101663.19
2024-02-04T16:02:49.354Z,101670.50
2024-02-04T16:05:17.046Z,101662.06
2024-02-04T16:07:44.744Z,101662.59
2024-02-04T16:10:19.728Z,101672.88
2024-02-04T16:12:55.436Z,101674.03
2024-02-04T16:15:30.193Z,101670.09
2024-02-04T16:17:57.642Z,101666.31
2024-02-04T16:20:24.930Z,101668.81
2024-02-04T16:22:51.747Z,101673.94
2024-02-04T16:25:19.576Z,101679.13
2024-02-04T16:27:46.812Z,101680.63
2024-02-04T16:30:14.088Z,101682.63
2024-02-04T16:32:41.320Z,101680.63
2024-02-04T16:35:09.092Z,101677.84
2024-02-04T16:37:36.141Z,101686.94
2024-02-04T16:40:03.013Z,101683.81
2024-02-04T16:42:30.000Z,101688.28
2024-02-04T16:44:56.773Z,101692.75
2024-02-04T16:47:23.541Z,101695.25
2024-02-04T16:49:50.334Z,101689.31
2024-02-04T16:52:17.154Z,101689.31
2024-02-04T16:54:43.892Z,101697.28
2024-02-04T16:57:11.262Z,101696.59
2024-02-04T16:59:38.019Z,101684.38
2024-02-04T17:02:05.301Z,101692.63
2024-02-04T17:04:32.460Z,101688.50
2024-02-04T17:06:59.805Z,101693.63
2024-02-04T17:09:27.009Z,101697.75
2024-02-04T17:11:53.973Z,101699.75
2024-02-04T17:14:21.174Z,101702.72
2024-02-04T17:17:06.166Z,101699.56
2024-02-04T17:19:59.501Z,101696.75
2024-02-04T17:22:27.127Z,101695.44
2024-02-04T17:24:56.757Z,101696.44
2024-02-04T17:27:25.885Z,101699.09
2024-02-04T17:29:52.973Z,101692.81
2024-02-04T17:32:20.009Z,101693.13
2024-02-04T17:34:47.059Z,101678.56
2024-02-04T17:37:13.969Z,101689.00
2024-02-04T17:39:40.764Z,101695.47
2024-02-04T17:42:07.607Z,101680.41
2024-02-04T17:44:34.355Z,101691.63
2024-02-04T17:47:01.659Z,101689.81
2024-02-04T17:49:28.886Z,101682.41
2024-02-04T17:51:55.751Z,101682.22
2024-02-04T17:54:22.590Z,101676.59
2024-02-04T17:56:49.414Z,101674.09
2024-02-04T17:59:16.198Z,101665.84
2024-02-04T18:01:43.096Z,101666.03
2024-02-04T18:04:10.167Z,101668.50
2024-02-04T18:06:40.607Z,101658.75
2024-02-04T18:09:08.205Z,101656.09
2024-02-04T18:11:35.087Z,101659.91
2024-02-04T18:14:01.867Z,101665.53
2024-02-04T18:16:29.481Z,101663.53
2024-02-04T18:18:56.407Z,101662.75
2024-02-04T18:21:24.332Z,101659.44
2024-02-04T18:23:52.418Z,101659.59
2024-02-04T18:26:23.168Z,101655.44
2024-02-04T18:28:50.912Z,101650.81
2024-02-04T18:31:18.027Z,101652.63
2024-02-04T18:33:45.244Z,101662.22
2024-02-04T18:36:13.358Z,101656.44
2024-02-04T18:38:40.127Z,101660.56
2024-02-04T18:41:10.077Z,101658.59
2024-02-04T18:43:37.141Z,101651.16
2024-02-04T18:46:03.960Z,101658.56
2024-02-04T18:48:30.853Z,101664.84
2024-02-04T18:50:58.539Z,101665.03
2024-02-04T18:53:25.514Z,101658.06
2024-02-04T18:55:52.348Z,101665.19
2024-02-04T18:58:19.158Z,101670.13
2024-02-04T19:00:46.001Z,101670.63
2024-02-04T19:03:12.906Z,101673.22
2024-02-04T19:05:40.497Z,101681.16
2024-02-04T19:08:08.031Z,101692.56
2024-02-04T19:10:36.252Z,101695.03
2024-02-04T19:13:03.167Z,101705.38
2024-02-04T19:15:30.527Z,101713.50
2024-02-04T19:17:57.340Z,101711.19
2024-02-04T19:20:24.159Z,101705.53
2024-02-04T19:22:51.650Z,101708.66
2024-02-04T19:25:19.848Z,101715.44
2024-02-04T19:27:51.433Z,101725.00
2024-02-04T19:30:19.528Z,101722.34
2024-02-04T19:32:47.248Z,101735.75
2024-02-04T19:35:15.557Z,101742.44
2024-02-04T19:37:43.574Z,101748.75
2024-02-04T19:40:12.312Z,101745.91
2024-02-04T19:42:40.225Z,101748.09
2024-02-04T19:45:08.073Z,101747.53
2024-02-04T19:47:34.905Z,101748.53
2024-02-04T19:50:02.315Z,101758.28
2024-02-04T19:52:29.252Z,101756.25
2024-02-04T19:54:56.085Z,101752.81
2024-02-04T19:57:22.864Z,101756.56
2024-02-04T19:59:49.600Z,101762.31
2024-02-04T20:02:16.357Z,101761.28
2024-02-04T20:04:43.261Z,101765.28
2024-02-04T20:07:10.182Z,101763.63
2024-02-04T20:09:37.034Z,101758.44
2024-02-04T20:12:07.894Z,101764.00
2024-02-04T20:14:35.209Z,101770.09
2024-02-04T20:17:01.994Z,101768.72
2024-02-04T20:19:28.828Z,101775.81
2024-02-04T20:21:55.752Z,101769.66
2024-02-04T20:24:22.600Z,101769.66
2024-02-04T20:26:49.466Z,101771.66
2024-02-04T20:29:16.199Z,101764.75
2024-02-04T20:31:43.068Z,101770.84
2024-02-04T20:34:10.072Z,101765.88
2024-02-04T20:36:37.543Z,101759.63
2024-02-04T20:39:04.435Z,101764.81
2024-02-04T20:41:31.238Z,101767.06
2024-02-04T20:43:58.131Z,101774.94
2024-02-04T20:46:25.072Z,101771.16
2024-02-04T20:48:51.948Z,101773.59
2024-02-04T20:51:18.717Z,101773.59
2024-02-04T20:53:45.590Z,101772.97
2024-02-04T20:56:16.364Z,101778.25
2024-02-04T20:58:43.164Z,101782.66
2024-02-04T21:01:10.654Z,101784.47
2024-02-04T21:03:37.581Z,101783.28
2024-02-04T21:06:04.472Z,101779.66
2024-02-04T21:08:31.271Z,101785.31
2024-02-04T21:10:58.054Z,101784.97
2024-02-04T21:13:24.945Z,101787.88
2024-02-04T21:15:51.794Z,101790.47
2024-02-04T21:18:18.683Z,101785.56
2024-02-04T21:20:45.490Z,101784.34
2024-02-04T21:23:12.423Z,101787.28
2024-02-04T21:25:39.258Z,101780.59
2024-02-04T21:28:06.242Z,101776.94
2024-02-04T21:30:33.175Z,101778.59
2024-02-04T21:33:00.625Z,101785.56
2024-02-04T21:35:27.402Z,101780.28
2024-02-04T21:37:54.149Z,101766.03
2024-02-04T21:40:23.734Z,101766.03
2024-02-04T21:42:50.643Z,101762.34
2024-02-04T21:45:17.797Z,101771.94
2024-02-04T21:47:44.688Z,101771.78
2024-02-04T21:50:11.526Z,101774.72
2024-02-04T21:52:38.485Z,101775.00
2024-02-04T21:55:05.592Z,101776.81
2024-02-04T21:57:32.498Z,101777.16
2024-02-04T21:59:59.314Z,101776.47
2024-02-04T22:02:26.141Z,101771.88
2024-02-04T22:04:55.629Z,101773.00
2024-02-04T22:07:22.451Z,101763.06
2024-02-04T22:09:49.307Z,101765.34
2024-02-04T22:12:16.083Z,101755.63
2024-02-04T22:14:42.857Z,101753.94
2024-02-04T22:17:09.628Z,101751.59
2024-02-04T22:19:36.478Z,101752.59
2024-02-04T22:22:03.409Z,101758.69
2024-02-04T22:24:30.181Z,101761.31
2024-02-04T22:26:57.003Z,101765.69
2024-02-04T22:29:23.805Z,101772.41
2024-02-04T22:31:50.549Z,101766.16
2024-02-04T22:34:17.347Z,101759.09
2024-02-04T22:36:44.163Z,101757.56
2024-02-04T22:39:11.280Z,101751.38
2024-02-04T22:41:41.786Z,101758.19
2024-02-04T22:44:10.126Z,101761.56
2024-02-04T22:46:37.260Z,101768.31
2024-02-04T22:49:04.886Z,101768.31
2024-02-04T22:51:32.746Z,101756.16
2024-02-04T22:53:59.571Z,101751.72
2024-02-04T22:56:26.330Z,101753.25
2024-02-04T22:58:53.097Z,101755.00
2024-02-04T23:01:19.946Z,101761.53
2024-02-04T23:03:46.854Z,101763.25
2024-02-04T23:06:13.744Z,101760.75
2024-02-04T23:08:40.692Z,101756.94
2024-02-04T23:11:07.533Z,101759.28
2024-02-04T23:13:34.408Z,101752.19
2024-02-04T23:16:01.435Z,101759.56
2024-02-04T23:18:28.270Z,101760.16
2024-02-04T23:20:55.003Z,101753.94
2024-02-04T23:23:21.736Z,101741.28
2024-02-04T23:25:48.569Z,101740.31
2024-02-04T23:28:15.354Z,101745.03
2024-02-04T23:30:42.152Z,101735.47
2024-02-04T23:33:09.019Z,101741.72
2024-02-04T23:35:35.827Z,101741.56
2024-02-04T23:38:02.656Z,101741.41
2024-02-04T23:40:29.510Z,101732.84
2024-02-04T23:42:56.367Z,101739.25
2024-02-04T23:45:23.235Z,101734.94
2024-02-04T23:47:50.034Z,101732.03
2024-02-04T23:50:17.614Z,101737.41
2024-02-04T23:52:44.569Z,101738.75
2024-02-04T23:55:11.585Z,101733.38
2024-02-04T23:57:39.319Z,101736.00
